createdAt,value
2022-09-28T00:00:24.814Z,100.00
2022-09-28T00:02:52.675Z,100.00
2022-09-28T00:05:19.487Z,100.00
2022-09-28T00:07:46.999Z,100.00
2022-09-28T00:10:13.735Z,100.00
2022-09-28T00:12:40.548Z,100.00
2022-09-28T00:15:08.152Z,100.00
2022-09-28T00:17:36.520Z,100.00
2022-09-28T00:20:05.461Z,100.00
2022-09-28T00:22:32.157Z,100.00
2022-09-28T00:24:58.902Z,100.00
2022-09-28T00:27:25.597Z,100.00
2022-09-28T00:29:52.338Z,100.00
2022-09-28T00:32:20.950Z,100.00
2022-09-28T00:34:49.030Z,100.00
2022-09-28T00:37:15.773Z,100.00
2022-09-28T00:39:43.593Z,100.00
2022-09-28T00:42:22.530Z,100.00
2022-09-28T00:44:59.229Z,100.00
2022-09-28T00:47:34.851Z,100.00
2022-09-28T00:50:03.290Z,100.00
2022-09-28T00:52:42.799Z,100.00
2022-09-28T00:55:15.016Z,100.00
2022-09-28T00:57:46.923Z,100.00
2022-09-28T01:00:14.134Z,100.00
2022-09-28T01:02:41.886Z,100.00
2022-09-28T01:05:10.511Z,100.00
2022-09-28T01:07:38.281Z,100.00
2022-09-28T01:10:07.500Z,100.00
2022-09-28T01:12:34.383Z,100.00
2022-09-28T01:15:02.054Z,100.00
2022-09-28T01:17:50.324Z,100.00
2022-09-28T01:20:32.272Z,100.00
2022-09-28T01:23:13.103Z,100.00
2022-09-28T01:26:10.690Z,100.00
2022-09-28T01:28:38.185Z,100.00
2022-09-28T01:31:13.430Z,100.00
2022-09-28T01:33:52.393Z,100.00
2022-09-28T01:36:27.789Z,100.00
2022-09-28T01:39:06.244Z,100.00
2022-09-28T01:41:36.864Z,100.00
2022-09-28T01:44:06.209Z,100.00
2022-09-28T01:46:44.978Z,100.00
2022-09-28T01:49:19.834Z,100.00
2022-09-28T01:52:00.413Z,100.00
2022-09-28T01:54:38.382Z,100.00
2022-09-28T01:57:14.409Z,100.00
2022-09-28T01:59:46.624Z,100.00
2022-09-28T02:02:18.877Z,100.00
2022-09-28T02:04:54.098Z,100.00
2022-09-28T02:07:29.043Z,100.00
2022-09-28T02:10:04.506Z,100.00
2022-09-28T02:13:10.626Z,100.00
2022-09-28T02:16:03.496Z,100.00
2022-09-28T02:18:30.463Z,100.00
2022-09-28T02:21:05.488Z,100.00
2022-09-28T02:23:36.332Z,100.00
2022-09-28T02:26:08.767Z,100.00
2022-09-28T02:28:35.528Z,100.00
2022-09-28T02:31:02.458Z,100.00
2022-09-28T02:33:38.908Z,100.00
2022-09-28T02:36:05.961Z,100.00
2022-09-28T02:38:32.802Z,100.00
2022-09-28T02:41:19.758Z,100.00
2022-09-28T02:44:15.727Z,100.00
2022-09-28T02:47:22.040Z,100.00
2022-09-28T02:50:01.249Z,100.00
2022-09-28T02:52:38.445Z,100.00
2022-09-28T02:55:39.810Z,100.00
2022-09-28T02:58:09.551Z,100.00
2022-09-28T03:00:47.150Z,100.00
2022-09-28T03:04:03.250Z,100.00
2022-09-28T03:06:50.189Z,100.00
2022-09-28T03:09:22.867Z,100.00
2022-09-28T03:11:55.544Z,100.00
2022-09-28T03:14:23.042Z,100.00
2022-09-28T03:16:49.771Z,100.00
2022-09-28T03:19:19.316Z,100.00
2022-09-28T03:21:46.068Z,100.00
2022-09-28T03:24:13.233Z,100.00
2022-09-28T03:26:39.984Z,100.00
2022-09-28T03:29:06.990Z,100.00
2022-09-28T03:31:33.792Z,100.00
2022-09-28T03:34:00.576Z,100.00
2022-09-28T03:36:27.317Z,100.00
2022-09-28T03:38:56.798Z,100.00
2022-09-28T03:41:28.051Z,100.00
2022-09-28T03:43:55.018Z,100.00
2022-09-28T03:46:21.869Z,100.00
2022-09-28T03:48:48.599Z,100.00
2022-09-28T03:51:15.435Z,100.00
2022-09-28T03:53:42.270Z,100.00
2022-09-28T03:56:12.425Z,100.00
2022-09-28T03:58:39.336Z,100.00
2022-09-28T04:01:12.955Z,100.00
2022-09-28T04:03:42.907Z,100.00
2022-09-28T04:06:10.183Z,100.00
2022-09-28T04:08:36.936Z,100.00
2022-09-28T04:11:03.773Z,100.00
2022-09-28T04:13:30.741Z,100.00
2022-09-28T04:15:59.598Z,100.00
2022-09-28T04:18:26.651Z,100.00
2022-09-28T04:21:09.153Z,100.00
2022-09-28T04:23:37.529Z,100.00
2022-09-28T04:26:06.595Z,100.00
2022-09-28T04:28:52.908Z,100.00
2022-09-28T04:31:24.712Z,100.00
2022-09-28T04:33:51.468Z,100.00
2022-09-28T04:36:19.939Z,100.00
2022-09-28T04:38:53.319Z,100.00
2022-09-28T04:41:22.649Z,100.00
2022-09-28T04:43:50.290Z,100.00
2022-09-28T04:46:17.711Z,100.00
2022-09-28T04:48:44.759Z,100.00
2022-09-28T04:51:11.613Z,100.00
2022-09-28T04:53:38.562Z,100.00
2022-09-28T04:56:08.126Z,100.00
2022-09-28T04:58:36.115Z,100.00
2022-09-28T05:01:07.130Z,100.00
2022-09-28T05:03:34.456Z,100.00
2022-09-28T05:06:01.726Z,100.00
2022-09-28T05:08:29.201Z,100.00
2022-09-28T05:11:00.907Z,100.00
2022-09-28T05:13:30.371Z,100.00
2022-09-28T05:16:04.408Z,100.00
2022-09-28T05:18:32.324Z,100.00
2022-09-28T05:20:59.167Z,100.00
2022-09-28T05:23:25.972Z,100.00
2022-09-28T05:25:52.792Z,100.00
2022-09-28T05:28:29.119Z,100.00
2022-09-28T05:31:04.150Z,100.00
2022-09-28T05:33:32.767Z,100.00
2022-09-28T05:36:01.547Z,100.00
2022-09-28T05:38:29.954Z,100.00
2022-09-28T05:40:57.153Z,100.00
2022-09-28T05:43:24.104Z,100.00
2022-09-28T05:45:55.410Z,100.00
2022-09-28T05:48:23.295Z,100.00
2022-09-28T05:50:53.136Z,100.00
2022-09-28T05:53:20.445Z,100.00
2022-09-28T05:55:47.538Z,100.00
2022-09-28T05:58:14.728Z,100.00
2022-09-28T06:00:41.454Z,100.00
2022-09-28T06:03:11.890Z,100.00
2022-09-28T06:05:42.123Z,100.00
2022-09-28T06:08:10.923Z,100.00
2022-09-28T06:10:38.414Z,100.00
2022-09-28T06:13:06.671Z,100.00
2022-09-28T06:15:35.370Z,100.00
2022-09-28T06:18:07.693Z,100.00
2022-09-28T06:20:36.634Z,100.00
2022-09-28T06:23:03.525Z,100.00
2022-09-28T06:25:30.270Z,100.00
2022-09-28T06:28:04.241Z,100.00
2022-09-28T06:30:34.240Z,100.00
2022-09-28T06:33:02.117Z,100.00
2022-09-28T06:35:31.003Z,100.00
2022-09-28T06:37:59.560Z,100.00
2022-09-28T06:40:27.513Z,100.00
2022-09-28T06:42:58.147Z,100.00
2022-09-28T06:45:27.226Z,100.00
2022-09-28T06:48:01.718Z,100.00
2022-09-28T06:50:32.482Z,95.20
2022-09-28T06:53:00.815Z,75.66
2022-09-28T06:55:28.658Z,71.46
2022-09-28T06:58:04.046Z,67.04
2022-09-28T07:00:34.147Z,58.53
2022-09-28T07:03:06.842Z,58.78
2022-09-28T07:05:37.066Z,63.04
2022-09-28T07:08:06.770Z,67.59
2022-09-28T07:10:33.731Z,69.48
2022-09-28T07:13:05.074Z,69.55
2022-09-28T07:15:32.846Z,74.55
2022-09-28T07:18:03.926Z,69.55
2022-09-28T07:20:40.875Z,63.15
2022-09-28T07:23:19.106Z,57.99
2022-09-28T07:25:52.128Z,53.30
2022-09-28T07:28:20.085Z,52.64
2022-09-28T07:30:47.765Z,50.57
2022-09-28T07:33:16.181Z,49.61
2022-09-28T07:35:50.898Z,45.18
2022-09-28T07:38:17.656Z,45.46
2022-09-28T07:41:02.836Z,44.18
2022-09-28T07:43:29.599Z,53.27
2022-09-28T07:45:56.411Z,49.82
2022-09-28T07:48:23.339Z,55.23
2022-09-28T07:50:55.214Z,55.17
2022-09-28T07:53:23.772Z,51.90
2022-09-28T07:56:02.245Z,50.62
2022-09-28T07:58:29.561Z,50.62
2022-09-28T08:00:56.425Z,52.73
2022-09-28T08:03:23.179Z,50.00
2022-09-28T08:05:49.972Z,48.78
2022-09-28T08:08:16.750Z,46.29
2022-09-28T08:10:46.974Z,44.80
2022-09-28T08:13:15.348Z,43.43
2022-09-28T08:15:42.756Z,41.80
2022-09-28T08:18:10.089Z,45.24
2022-09-28T08:20:55.628Z,44.76
2022-09-28T08:23:23.461Z,49.57
2022-09-28T08:25:54.232Z,45.39
2022-09-28T08:28:23.296Z,47.21
2022-09-28T08:30:50.577Z,49.45
2022-09-28T08:33:18.786Z,50.30
2022-09-28T08:35:46.929Z,48.94
2022-09-28T08:38:14.254Z,50.06
2022-09-28T08:40:47.500Z,52.60
2022-09-28T08:43:34.176Z,48.04
2022-09-28T08:46:01.591Z,45.63
2022-09-28T08:48:51.805Z,42.82
2022-09-28T08:51:33.383Z,41.42
2022-09-28T08:54:12.005Z,42.84
2022-09-28T08:56:49.373Z,42.11
2022-09-28T08:59:24.650Z,46.31
2022-09-28T09:01:58.008Z,48.02
2022-09-28T09:04:25.921Z,47.12
2022-09-28T09:07:20.581Z,47.51
2022-09-28T09:09:50.127Z,48.12
2022-09-28T09:12:23.050Z,48.94
2022-09-28T09:15:01.843Z,49.99
2022-09-28T09:17:55.593Z,54.21
2022-09-28T09:20:56.751Z,52.88
2022-09-28T09:23:37.482Z,52.93
2022-09-28T09:26:25.461Z,54.55
2022-09-28T09:29:23.676Z,54.10
2022-09-28T09:31:59.701Z,55.03
2022-09-28T09:34:47.866Z,52.42
2022-09-28T09:37:22.677Z,54.69
2022-09-28T09:40:03.965Z,54.49
2022-09-28T09:43:08.696Z,51.93
2022-09-28T09:45:50.606Z,51.60
2022-09-28T09:48:33.127Z,53.75
2022-09-28T09:51:06.671Z,52.22
2022-09-28T09:53:40.789Z,51.60
2022-09-28T09:56:20.747Z,50.55
2022-09-28T09:58:53.719Z,53.44
2022-09-28T10:01:30.161Z,52.33
2022-09-28T10:03:59.148Z,56.08
2022-09-28T10:06:33.554Z,57.58
2022-09-28T10:09:23.955Z,57.15
2022-09-28T10:11:52.186Z,57.50
2022-09-28T10:14:22.399Z,59.80
2022-09-28T10:16:55.721Z,60.58
2022-09-28T10:19:30.802Z,59.28
2022-09-28T10:22:00.199Z,58.68
2022-09-28T10:24:35.907Z,60.64
2022-09-28T10:27:08.776Z,60.22
2022-09-28T10:29:57.914Z,59.97
2022-09-28T10:32:27.932Z,60.57
2022-09-28T10:35:21.724Z,59.95
2022-09-28T10:38:00.520Z,59.48
2022-09-28T10:40:46.654Z,60.47
2022-09-28T10:43:16.142Z,59.71
2022-09-28T10:45:43.215Z,57.73
2022-09-28T10:48:58.046Z,58.85
2022-09-28T10:51:51.892Z,56.87
2022-09-28T10:54:20.345Z,57.47
2022-09-28T10:56:48.113Z,55.50
2022-09-28T10:59:29.911Z,57.70
2022-09-28T11:02:32.323Z,55.88
2022-09-28T11:05:04.202Z,56.07
2022-09-28T11:07:34.179Z,57.47
2022-09-28T11:10:02.104Z,58.40
2022-09-28T11:12:43.273Z,58.26
2022-09-28T11:15:22.039Z,55.57
2022-09-28T11:17:48.740Z,58.70
2022-09-28T11:20:27.538Z,59.59
2022-09-28T11:23:14.680Z,59.86
2022-09-28T11:25:41.918Z,59.71
2022-09-28T11:28:22.470Z,58.78
2022-09-28T11:30:52.841Z,60.27
2022-09-28T11:33:29.025Z,60.58
2022-09-28T11:36:13.912Z,62.45
2022-09-28T11:38:49.292Z,60.85
2022-09-28T11:41:37.032Z,62.04
2022-09-28T11:44:28.168Z,60.69
2022-09-28T11:47:21.269Z,63.85
2022-09-28T11:50:17.945Z,64.60
2022-09-28T11:53:17.010Z,65.62
2022-09-28T11:56:22.043Z,64.53
2022-09-28T11:58:57.306Z,63.93
2022-09-28T12:01:35.709Z,64.49
2022-09-28T12:04:14.663Z,66.29
2022-09-28T12:06:49.802Z,66.72
2022-09-28T12:09:28.774Z,65.45
2022-09-28T12:12:02.132Z,65.01
2022-09-28T12:14:34.431Z,64.79
2022-09-28T12:17:21.323Z,65.13
2022-09-28T12:20:25.900Z,63.77
2022-09-28T12:23:00.037Z,64.94
2022-09-28T12:25:29.691Z,63.28
2022-09-28T12:28:01.340Z,66.35
2022-09-28T12:30:34.497Z,66.81
2022-09-28T12:33:12.327Z,65.83
2022-09-28T12:35:51.204Z,66.81
2022-09-28T12:39:21.682Z,67.36
2022-09-28T12:42:17.258Z,67.22
2022-09-28T12:44:59.522Z,68.24
2022-09-28T12:48:03.255Z,65.78
2022-09-28T12:50:39.135Z,64.53
2022-09-28T12:53:44.971Z,67.04
2022-09-28T12:56:22.779Z,66.18
2022-09-28T12:59:18.366Z,65.29
2022-09-28T13:02:09.957Z,67.59
2022-09-28T13:04:45.744Z,69.13
2022-09-28T13:07:39.890Z,70.83
2022-09-28T13:10:41.136Z,67.45
2022-09-28T13:13:53.177Z,67.05
2022-09-28T13:16:35.944Z,67.21
2022-09-28T13:19:32.315Z,66.76
2022-09-28T13:22:14.309Z,66.78
2022-09-28T13:24:44.511Z,69.43
2022-09-28T13:27:19.479Z,69.86
2022-09-28T13:29:51.221Z,71.39
2022-09-28T13:32:19.128Z,71.13
2022-09-28T13:34:49.071Z,72.24
2022-09-28T13:37:20.189Z,71.12
2022-09-28T13:39:52.319Z,72.00
2022-09-28T13:42:47.493Z,72.18
2022-09-28T13:45:23.206Z,73.77
2022-09-28T13:48:06.245Z,72.46
2022-09-28T13:51:14.811Z,72.10
2022-09-28T13:53:53.595Z,74.39
2022-09-28T13:56:36.339Z,73.45
2022-09-28T13:59:18.901Z,73.85
2022-09-28T14:02:07.295Z,73.31
2022-09-28T14:05:02.867Z,75.26
2022-09-28T14:07:35.761Z,76.02
2022-09-28T14:10:24.691Z,77.10
2022-09-28T14:12:53.103Z,76.72
2022-09-28T14:15:29.046Z,75.95
2022-09-28T14:18:20.363Z,76.47
2022-09-28T14:21:13.958Z,77.82
2022-09-28T14:24:08.267Z,78.89
2022-09-28T14:27:04.045Z,79.73
2022-09-28T14:29:34.444Z,80.66
2022-09-28T14:32:10.299Z,81.69
2022-09-28T14:34:41.685Z,82.76
2022-09-28T14:37:38.121Z,82.17
2022-09-28T14:40:40.276Z,83.86
2022-09-28T14:43:37.545Z,83.16
2022-09-28T14:46:14.695Z,82.41
2022-09-28T14:48:48.738Z,83.01
2022-09-28T14:51:27.593Z,83.43
2022-09-28T14:54:02.567Z,84.64
2022-09-28T14:56:34.148Z,85.83
2022-09-28T14:59:01.002Z,85.92
2022-09-28T15:01:28.029Z,85.89
2022-09-28T15:03:59.126Z,85.30
2022-09-28T15:06:29.122Z,87.70
2022-09-28T15:08:55.798Z,88.32
2022-09-28T15:11:25.557Z,89.40
2022-09-28T15:14:06.504Z,89.69
2022-09-28T15:16:33.723Z,91.19
2022-09-28T15:19:19.562Z,91.15
2022-09-28T15:21:48.785Z,91.58
2022-09-28T15:24:32.150Z,91.24
2022-09-28T15:27:00.488Z,89.47
2022-09-28T15:29:34.389Z,90.98
2022-09-28T15:32:01.254Z,91.74
2022-09-28T15:34:48.821Z,92.26
2022-09-28T15:37:19.142Z,91.98
2022-09-28T15:39:48.356Z,92.45
2022-09-28T15:42:17.124Z,93.67
2022-09-28T15:45:02.148Z,94.48
2022-09-28T15:47:30.260Z,96.60
2022-09-28T15:50:00.821Z,97.78
2022-09-28T15:52:45.088Z,98.90
2022-09-28T15:55:26.485Z,100.00
2022-09-28T15:58:22.793Z,100.00
2022-09-28T16:00:51.886Z,100.00
2022-09-28T16:03:32.088Z,100.00
2022-09-28T16:05:58.814Z,100.00
2022-09-28T16:08:33.108Z,100.00
2022-09-28T16:11:11.644Z,100.00
2022-09-28T16:13:52.235Z,100.00
2022-09-28T16:16:26.219Z,100.00
2022-09-28T16:18:55.597Z,100.00
2022-09-28T16:21:43.758Z,100.00
2022-09-28T16:24:23.524Z,100.00
2022-09-28T16:26:58.176Z,100.00
2022-09-28T16:29:43.964Z,100.00
2022-09-28T16:32:25.786Z,100.00
2022-09-28T16:35:07.967Z,100.00
2022-09-28T16:37:34.718Z,100.00
2022-09-28T16:40:01.577Z,100.00
2022-09-28T16:42:28.560Z,100.00
2022-09-28T16:44:56.413Z,100.00
2022-09-28T16:47:23.851Z,100.00
2022-09-28T16:49:51.723Z,100.00
2022-09-28T16:52:38.386Z,100.00
2022-09-28T16:58:05.015Z,100.00
2022-09-28T17:00:32.574Z,100.00
2022-09-28T17:02:59.624Z,100.00
2022-09-28T17:05:26.446Z,100.00
2022-09-28T17:08:03.739Z,100.00
2022-09-28T17:11:18.105Z,100.00
2022-09-28T17:13:47.304Z,100.00
2022-09-28T17:16:28.161Z,100.00
2022-09-28T17:19:03.814Z,100.00
2022-09-28T17:21:31.365Z,100.00
2022-09-28T17:23:58.060Z,100.00
2022-09-28T17:26:30.852Z,100.00
2022-09-28T17:29:07.335Z,100.00
2022-09-28T17:31:34.256Z,100.00
2022-09-28T17:34:00.992Z,100.00
2022-09-28T17:36:28.171Z,100.00
2022-09-28T17:38:54.914Z,100.00
2022-09-28T17:41:21.676Z,100.00
2022-09-28T17:43:49.290Z,100.00
2022-09-28T17:46:33.931Z,100.00
2022-09-28T17:49:02.750Z,100.00
2022-09-28T17:51:32.801Z,100.00
2022-09-28T17:54:01.208Z,100.00
2022-09-28T17:56:32.057Z,100.00
2022-09-28T17:59:05.704Z,100.00
2022-09-28T18:01:37.237Z,100.00
2022-09-28T18:04:05.125Z,100.00
2022-09-28T18:06:33.884Z,100.00
2022-09-28T18:09:03.214Z,100.00
2022-09-28T18:11:31.457Z,100.00
2022-09-28T18:13:58.610Z,100.00
2022-09-28T18:16:28.028Z,100.00
2022-09-28T18:18:55.076Z,100.00
2022-09-28T18:21:21.943Z,100.00
2022-09-28T18:23:48.771Z,100.00
2022-09-28T18:26:16.946Z,100.00
2022-09-28T18:28:43.754Z,100.00
2022-09-28T18:31:14.531Z,100.00
2022-09-28T18:33:42.059Z,100.00
2022-09-28T18:36:08.967Z,100.00
2022-09-28T18:38:36.936Z,100.00
2022-09-28T18:41:14.599Z,100.00
2022-09-28T18:43:42.264Z,100.00
2022-09-28T18:46:10.977Z,100.00
2022-09-28T18:48:40.658Z,100.00
2022-09-28T18:51:12.414Z,100.00
2022-09-28T18:53:40.284Z,100.00
2022-09-28T18:56:13.319Z,100.00
2022-09-28T18:58:41.622Z,100.00
2022-09-28T19:01:31.365Z,100.00
2022-09-28T19:04:00.392Z,100.00
2022-09-28T19:06:27.974Z,100.00
2022-09-28T19:08:55.916Z,100.00
2022-09-28T19:11:23.264Z,100.00
2022-09-28T19:13:50.569Z,100.00
2022-09-28T19:16:24.266Z,100.00
2022-09-28T19:18:52.561Z,100.00
2022-09-28T19:21:20.223Z,100.00
2022-09-28T19:23:49.667Z,100.00
2022-09-28T19:26:22.618Z,100.00
2022-09-28T19:28:49.874Z,100.00
2022-09-28T19:31:16.997Z,100.00
2022-09-28T19:33:46.131Z,100.00
2022-09-28T19:36:15.520Z,100.00
2022-09-28T19:38:42.502Z,100.00
2022-09-28T19:42:04.265Z,100.00
2022-09-28T19:44:31.376Z,100.00
2022-09-28T19:47:00.298Z,100.00
2022-09-28T19:49:33.119Z,100.00
2022-09-28T19:52:16.089Z,100.00
2022-09-28T19:54:56.748Z,100.00
2022-09-28T19:57:29.390Z,100.00
2022-09-28T20:00:01.793Z,100.00
2022-09-28T20:02:29.511Z,100.00
2022-09-28T20:04:56.316Z,100.00
2022-09-28T20:07:23.078Z,100.00
2022-09-28T20:09:49.760Z,100.00
2022-09-28T20:12:16.679Z,100.00
2022-09-28T20:14:43.338Z,100.00
2022-09-28T20:17:10.074Z,100.00
2022-09-28T20:19:36.863Z,100.00
2022-09-28T20:22:03.958Z,100.00
2022-09-28T20:24:31.737Z,100.00
2022-09-28T20:26:58.524Z,100.00
2022-09-28T20:29:25.487Z,100.00
2022-09-28T20:31:52.577Z,100.00
2022-09-28T20:34:19.408Z,100.00
2022-09-28T20:36:46.216Z,100.00
2022-09-28T20:39:13.484Z,100.00
2022-09-28T20:41:40.497Z,100.00
2022-09-28T20:44:07.704Z,100.00
2022-09-28T20:46:36.115Z,100.00
2022-09-28T20:49:03.720Z,100.00
2022-09-28T20:51:30.754Z,100.00
2022-09-28T20:53:59.039Z,100.00
2022-09-28T20:56:39.501Z,100.00
2022-09-28T20:59:11.900Z,100.00
2022-09-28T21:01:39.264Z,100.00
2022-09-28T21:04:07.787Z,100.00
2022-09-28T21:06:36.758Z,100.00
2022-09-28T21:09:05.580Z,100.00
2022-09-28T21:11:33.181Z,100.00
2022-09-28T21:14:01.953Z,100.00
2022-09-28T21:16:31.105Z,100.00
2022-09-28T21:18:58.538Z,100.00
2022-09-28T21:21:26.770Z,100.00
2022-09-28T21:23:54.548Z,100.00
2022-09-28T21:26:26.491Z,100.00
2022-09-28T21:28:54.144Z,100.00
2022-09-28T21:31:24.907Z,100.00
2022-09-28T21:33:55.367Z,100.00
2022-09-28T21:36:22.103Z,100.00
2022-09-28T21:38:49.490Z,100.00
2022-09-28T21:41:16.483Z,100.00
2022-09-28T21:43:43.338Z,100.00
2022-09-28T21:46:10.251Z,100.00
2022-09-28T21:48:37.050Z,100.00
2022-09-28T21:51:06.126Z,100.00
2022-09-28T21:53:35.111Z,100.00
2022-09-28T21:56:03.731Z,100.00
2022-09-28T21:58:33.732Z,100.00
2022-09-28T22:01:08.454Z,100.00
2022-09-28T22:03:36.725Z,100.00
2022-09-28T22:06:04.907Z,100.00
2022-09-28T22:08:32.649Z,100.00
2022-09-28T22:11:01.404Z,100.00
2022-09-28T22:13:33.212Z,100.00
2022-09-28T22:16:00.935Z,100.00
2022-09-28T22:18:29.687Z,100.00
2022-09-28T22:21:03.466Z,100.00
2022-09-28T22:23:30.632Z,100.00
2022-09-28T22:26:01.980Z,100.00
2022-09-28T22:28:29.232Z,100.00
2022-09-28T22:30:57.256Z,100.00
2022-09-28T22:33:24.888Z,100.00
2022-09-28T22:35:51.664Z,100.00
2022-09-28T22:38:19.315Z,100.00
2022-09-28T22:40:55.610Z,100.00
2022-09-28T22:43:23.731Z,100.00
2022-09-28T22:45:51.349Z,100.00
2022-09-28T22:48:18.701Z,100.00
2022-09-28T22:50:51.685Z,100.00
2022-09-28T22:53:19.156Z,100.00
2022-09-28T22:55:46.018Z,100.00
2022-09-28T22:58:12.938Z,100.00
2022-09-28T23:00:39.713Z,100.00
2022-09-28T23:03:06.553Z,100.00
2022-09-28T23:05:33.269Z,100.00
2022-09-28T23:08:00.001Z,100.00
2022-09-28T23:10:26.724Z,100.00
